Time;durP1;ratioP1;P1;durP2;ratioP2;P2;SDS_P1;SDS_P2;PMS_P1;PMS_P2;Temp;Humidity;BMP_temperature;BMP_pressure;BME280_temperature;BME280_humidity;BME280_pressure;Samples;Min_cycle;Max_cycle;Signal;HPM_P1;HPM_P2
2022/04/16 03:02:00;;;;;;;1.08;0.60;;;20.10;45.70;;;;;;5172793;23;45516;-58
2022/04/16 03:04:26;;;;;;;0.60;0.60;;;20.10;45.70;;;;;;4903966;28;45433;-55
2022/04/16 03:06:52;;;;;;;0.73;0.70;;;20.10;45.60;;;;;;4908746;28;47342;-57
2022/04/16 03:09:18;;;;;;;0.73;0.73;;;20.10;45.60;;;;;;4924741;28;45303;-54
2022/04/16 03:11:43;;;;;;;0.77;0.70;;;20.10;45.60;;;;;;4918321;28;45311;-55
2022/04/16 03:19:38;;;;;;;0.85;0.73;;;20.10;45.80;;;;;;4926878;28;45474;-56
2022/04/16 03:22:04;;;;;;;0.55;0.55;;;20.00;46.00;;;;;;4930024;28;45359;-58
2022/04/16 03:24:30;;;;;;;0.57;0.57;;;20.10;45.70;;;;;;4922823;28;45188;-56
2022/04/16 03:26:56;;;;;;;0.70;0.63;;;20.10;45.70;;;;;;4912821;28;45395;-55
2022/04/16 03:29:21;;;;;;;0.70;0.70;;;20.10;45.70;;;;;;4925937;28;45262;-54
2022/04/16 03:31:47;;;;;;;0.70;0.60;;;20.10;45.70;;;;;;4925585;28;45240;-58
2022/04/16 03:34:12;;;;;;;0.60;0.57;;;20.10;45.70;;;;;;4902977;28;45164;-53
2022/04/16 03:36:38;;;;;;;0.85;0.70;;;20.10;45.70;;;;;;4925095;28;46156;-56
2022/04/16 03:39:04;;;;;;;0.70;0.60;;;20.10;45.80;;;;;;4928620;28;45237;-54
2022/04/16 03:41:29;;;;;;;1.10;0.65;;;20.10;45.80;;;;;;4927834;28;45256;-56
2022/04/16 03:43:55;;;;;;;0.85;0.65;;;20.10;45.80;;;;;;4917376;28;45006;-53
2022/04/16 03:46:22;;;;;;;0.60;0.60;;;20.10;45.90;;;;;;4915430;28;45939;-57
2022/04/16 03:48:48;;;;;;;0.85;0.77;;;20.00;45.90;;;;;;4923878;28;45478;-56
2022/04/16 03:51:14;;;;;;;0.75;0.75;;;20.00;45.90;;;;;;4908270;28;45173;-57
2022/04/16 03:53:39;;;;;;;0.50;0.50;;;20.00;45.90;;;;;;4921499;28;46264;-56
2022/04/16 04:01:33;;;;;;;0.70;0.70;;;20.00;45.90;;;;;;4923047;28;45295;-55
2022/04/16 04:03:59;;;;;;;0.93;0.63;;;20.00;45.90;;;;;;4929826;28;45359;-58
2022/04/16 04:06:24;;;;;;;0.77;0.77;;;20.00;45.90;;;;;;4925355;28;46069;-55
2022/04/16 04:08:50;;;;;;;0.63;0.60;;;20.10;45.90;;;;;;4921486;28;45254;-56
2022/04/16 04:11:15;;;;;;;0.80;0.80;;;20.00;45.90;;;;;;4887642;28;45354;-56
2022/04/16 04:13:41;;;;;;;0.70;0.70;;;20.00;45.90;;;;;;4914634;28;45234;-55
2022/04/16 04:16:06;;;;;;;0.80;0.80;;;20.00;46.00;;;;;;4913691;28;45928;-56
2022/04/16 04:18:32;;;;;;;0.60;0.60;;;20.00;46.00;;;;;;4914788;28;44698;-55
2022/04/16 04:20:58;;;;;;;0.68;0.68;;;20.00;46.10;;;;;;4893877;28;45270;-56
2022/04/16 04:23:23;;;;;;;0.68;0.68;;;20.00;46.10;;;;;;4914073;28;46187;-57
2022/04/16 04:25:49;;;;;;;0.63;0.63;;;20.00;46.10;;;;;;4909741;28;46169;-58
2022/04/16 04:28:16;;;;;;;0.75;0.75;;;20.00;46.00;;;;;;4904434;28;45396;-58
2022/04/16 04:30:41;;;;;;;1.15;0.60;;;20.10;46.10;;;;;;4903038;28;45264;-57
2022/04/16 04:33:07;;;;;;;0.60;0.60;;;20.10;46.10;;;;;;4915814;28;45444;-55
2022/04/16 04:35:32;;;;;;;0.75;0.75;;;20.10;46.00;;;;;;4913568;28;46283;-58
2022/04/16 04:37:58;;;;;;;0.60;0.60;;;20.10;46.10;;;;;;4914703;28;45269;-57
2022/04/16 04:40:24;;;;;;;0.77;0.75;;;20.10;46.00;;;;;;4911016;28;45301;-56
2022/04/16 04:42:49;;;;;;;0.60;0.60;;;20.10;46.00;;;;;;4911252;28;44902;-55
2022/04/16 04:45:15;;;;;;;0.52;0.52;;;20.10;46.10;;;;;;4914745;28;46318;-56
2022/04/16 04:47:41;;;;;;;0.68;0.68;;;20.00;46.30;;;;;;4900626;28;45393;-56
2022/04/16 04:50:07;;;;;;;0.93;0.82;;;20.10;46.10;;;;;;4916412;28;45759;-55
2022/04/16 04:52:35;;;;;;;0.70;0.70;;;20.10;46.10;;;;;;4917334;28;45789;-58
2022/04/16 04:55:00;;;;;;;0.73;0.73;;;20.10;46.10;;;;;;4915586;28;47058;-55
2022/04/16 04:57:26;;;;;;;0.80;0.80;;;20.10;46.10;;;;;;4917759;28;45579;-58
2022/04/16 04:59:52;;;;;;;0.73;0.73;;;20.10;46.10;;;;;;4917995;28;45303;-56
2022/04/16 05:02:18;;;;;;;0.70;0.70;;;20.10;46.10;;;;;;4899085;28;45733;-57
2022/04/16 05:04:43;;;;;;;0.70;0.70;;;20.10;46.10;;;;;;4915477;28;46294;-56
2022/04/16 05:07:09;;;;;;;0.70;0.70;;;20.00;46.10;;;;;;4916104;28;45193;-56
2022/04/16 05:09:35;;;;;;;0.70;0.70;;;20.10;46.40;;;;;;4917555;28;45554;-58
2022/04/16 05:12:01;;;;;;;0.80;0.80;;;20.00;46.20;;;;;;4918856;28;45339;-57
2022/04/16 05:14:27;;;;;;;1.23;0.80;;;20.10;46.20;;;;;;4899137;28;46012;-55
2022/04/16 05:16:52;;;;;;;0.80;0.80;;;20.10;46.20;;;;;;4880622;28;44961;-58
2022/04/16 05:19:18;;;;;;;0.98;0.93;;;20.10;46.20;;;;;;4910972;28;45884;-58
2022/04/16 05:21:43;;;;;;;0.80;0.80;;;20.10;46.90;;;;;;4917094;28;45655;-56
2022/04/16 05:24:09;;;;;;;;;;;20.00;46.30;;;;;;4056417;28;10000497;-55
2022/04/16 05:26:34;;;;;;;0.70;0.70;;;20.00;46.40;;;;;;4923887;28;45375;-55
2022/04/16 05:29:00;;;;;;;0.80;0.80;;;20.00;46.30;;;;;;4935826;28;44929;-55
2022/04/16 05:31:27;;;;;;;0.70;0.70;;;20.00;46.30;;;;;;4922498;28;45261;-55
2022/04/16 05:36:38;;;;;;;0.70;0.70;;;20.10;46.30;;;;;;4930668;28;45611;-58
2022/04/16 05:39:04;;;;;;;0.75;0.60;;;20.00;46.30;;;;;;4928773;28;45612;-55
2022/04/16 05:41:29;;;;;;;0.85;0.85;;;20.00;46.30;;;;;;4929798;28;45501;-57
2022/04/16 05:43:55;;;;;;;0.90;0.70;;;20.00;46.30;;;;;;4929195;28;45175;-56
2022/04/16 05:46:21;;;;;;;1.13;0.85;;;20.00;46.50;;;;;;4913011;28;45632;-57
2022/04/16 05:48:47;;;;;;;1.30;1.02;;;20.00;46.40;;;;;;4927778;28;45239;-54
2022/04/16 05:51:12;;;;;;;0.88;0.80;;;20.00;46.40;;;;;;4930467;28;45096;-55
2022/04/16 05:53:38;;;;;;;0.80;0.80;;;20.00;46.30;;;;;;4911094;28;46369;-57
2022/04/16 05:56:04;;;;;;;0.80;0.80;;;20.00;46.30;;;;;;4909468;28;45690;-55
2022/04/16 05:58:30;;;;;;;0.93;0.88;;;20.10;46.30;;;;;;4909903;28;45213;-57
2022/04/16 06:00:55;;;;;;;1.10;0.98;;;20.10;46.40;;;;;;4916992;28;46249;-58
2022/04/16 06:03:21;;;;;;;0.70;0.60;;;20.00;46.30;;;;;;4930158;28;45712;-56
2022/04/16 06:05:47;;;;;;;0.70;0.70;;;20.00;46.30;;;;;;4929843;28;45728;-58
2022/04/16 06:08:13;;;;;;;0.70;0.70;;;20.00;46.40;;;;;;4910804;28;45518;-56
2022/04/16 06:10:38;;;;;;;0.90;0.90;;;20.00;46.40;;;;;;4926766;28;44902;-57
2022/04/16 06:13:04;;;;;;;0.88;0.88;;;20.00;46.40;;;;;;4927701;28;46148;-57
2022/04/16 06:15:30;;;;;;;0.80;0.80;;;20.00;46.40;;;;;;4928910;28;45331;-57
2022/04/16 06:17:57;;;;;;;0.80;0.80;;;20.00;46.40;;;;;;4931299;28;46283;-56
2022/04/16 06:20:23;;;;;;;1.00;0.95;;;20.00;46.50;;;;;;4926861;28;45601;-57
2022/04/16 06:22:49;;;;;;;0.70;0.70;;;20.00;46.40;;;;;;4930044;28;45510;-57
2022/04/16 06:25:14;;;;;;;0.73;0.73;;;20.00;46.40;;;;;;4926992;28;45440;-55
2022/04/16 06:27:40;;;;;;;0.80;0.80;;;20.00;46.50;;;;;;4929611;28;46137;-57
2022/04/16 06:30:09;;;;;;;0.80;0.80;;;20.00;46.50;;;;;;4924774;28;45687;-56
2022/04/16 06:32:35;;;;;;;0.80;0.80;;;20.00;46.50;;;;;;4929282;28;45645;-56
2022/04/16 06:35:01;;;;;;;1.38;1.23;;;20.00;46.40;;;;;;4931933;28;45457;-58
2022/04/16 06:37:27;;;;;;;0.93;0.80;;;20.00;46.40;;;;;;4926583;28;45299;-56
2022/04/16 06:39:53;;;;;;;1.20;1.10;;;20.00;46.50;;;;;;4929702;28;45141;-54
2022/04/16 06:42:18;;;;;;;0.85;0.85;;;20.00;46.50;;;;;;4930890;28;45359;-56
2022/04/16 06:44:44;;;;;;;0.80;0.80;;;20.00;46.50;;;;;;4927179;28;45623;-56
2022/04/16 06:47:09;;;;;;;1.17;1.10;;;20.00;46.40;;;;;;4926330;28;45984;-56
2022/04/16 06:49:35;;;;;;;0.80;0.80;;;20.00;46.40;;;;;;4927690;28;45288;-56
2022/04/16 06:52:01;;;;;;;1.30;0.98;;;20.00;46.40;;;;;;4929553;28;45174;-57
2022/04/16 06:54:26;;;;;;;0.70;0.70;;;20.00;46.50;;;;;;4912618;28;45083;-54
2022/04/16 06:56:52;;;;;;;1.17;1.00;;;20.00;46.60;;;;;;4928201;28;46485;-56
2022/04/16 06:59:17;;;;;;;1.10;1.00;;;20.00;46.50;;;;;;4909913;28;45479;-58
2022/04/16 07:01:43;;;;;;;1.58;1.10;;;20.00;46.50;;;;;;4929254;28;44976;-57
2022/04/16 07:04:08;;;;;;;0.90;0.90;;;20.00;46.50;;;;;;4927882;28;45254;-58
2022/04/16 07:06:34;;;;;;;1.10;1.00;;;20.00;46.50;;;;;;4933294;28;45668;-57
2022/04/16 07:09:00;;;;;;;0.90;0.90;;;20.10;46.50;;;;;;4929010;28;45275;-60
2022/04/16 07:11:26;;;;;;;1.92;1.08;;;20.00;46.50;;;;;;4930053;28;45443;-59
2022/04/16 07:13:51;;;;;;;1.20;1.00;;;20.00;46.50;;;;;;4932499;28;46140;-57
2022/04/16 07:16:17;;;;;;;0.90;0.90;;;20.00;46.50;;;;;;4927428;28;45867;-56
2022/04/16 07:18:43;;;;;;;0.93;0.93;;;20.00;46.60;;;;;;4926834;28;45322;-57
2022/04/16 07:21:09;;;;;;;0.70;0.70;;;20.00;46.50;;;;;;4928742;28;45351;-57
2022/04/16 07:23:34;;;;;;;1.10;1.00;;;20.00;46.50;;;;;;4928011;28;45239;-55
2022/04/16 07:26:00;;;;;;;1.40;0.98;;;20.00;46.50;;;;;;4927217;28;44965;-59
2022/04/16 07:28:25;;;;;;;1.08;0.98;;;20.00;46.60;;;;;;4924253;28;45194;-57
2022/04/16 07:30:51;;;;;;;0.85;0.85;;;20.00;46.60;;;;;;4923543;28;46191;-56
2022/04/16 07:33:17;;;;;;;1.50;0.82;;;20.00;46.60;;;;;;4912921;28;45304;-58
2022/04/16 07:35:42;;;;;;;1.50;1.10;;;20.00;46.60;;;;;;4923226;28;46372;-58
2022/04/16 07:38:08;;;;;;;1.50;1.15;;;20.00;46.60;;;;;;4927155;28;45214;-56
2022/04/16 07:40:36;;;;;;;1.15;1.00;;;20.00;46.60;;;;;;4926148;28;45331;-57
2022/04/16 07:43:02;;;;;;;0.90;0.90;;;20.00;46.60;;;;;;4927087;28;45687;-58
2022/04/16 07:45:28;;;;;;;1.05;0.95;;;20.00;46.60;;;;;;4924830;28;45925;-57
2022/04/16 07:47:54;;;;;;;1.20;0.95;;;20.00;46.60;;;;;;4926527;28;45378;-57
2022/04/16 07:50:19;;;;;;;0.90;0.85;;;20.00;46.50;;;;;;4929380;28;45494;-54
2022/04/16 07:52:45;;;;;;;1.20;1.10;;;20.10;46.60;;;;;;4929219;28;45239;-57
2022/04/16 07:55:11;;;;;;;0.90;0.90;;;20.00;46.60;;;;;;4929223;28;46272;-57
2022/04/16 07:57:36;;;;;;;1.08;1.00;;;20.00;46.60;;;;;;4930063;28;45545;-57
2022/04/16 08:00:04;;;;;;;1.15;1.05;;;20.00;46.60;;;;;;4923811;28;45533;-54
2022/04/16 08:02:30;;;;;;;1.40;1.30;;;20.00;46.70;;;;;;4921840;28;45766;-56
2022/04/16 08:04:55;;;;;;;1.10;1.00;;;20.00;46.70;;;;;;4922468;28;45773;-56
2022/04/16 08:07:21;;;;;;;0.93;0.93;;;20.00;46.70;;;;;;4930967;28;44701;-58
2022/04/16 08:09:46;;;;;;;1.02;0.90;;;20.00;46.70;;;;;;4914862;28;44862;-57
2022/04/16 08:12:12;;;;;;;0.70;0.70;;;20.00;46.70;;;;;;4924708;28;45648;-56
2022/04/16 08:14:37;;;;;;;1.33;1.10;;;20.00;46.70;;;;;;4908955;28;46160;-55
2022/04/16 08:17:03;;;;;;;0.95;0.93;;;20.00;46.70;;;;;;4921666;28;45371;-57
2022/04/16 08:19:29;;;;;;;1.00;0.90;;;20.00;46.70;;;;;;4924317;28;45074;-56
2022/04/16 08:21:55;;;;;;;1.27;1.05;;;20.00;46.70;;;;;;4919450;28;45689;-57
2022/04/16 08:26:52;;;;;;;0.82;0.80;;;20.00;46.80;;;;;;4920526;28;45308;-58
2022/04/16 08:29:18;;;;;;;0.95;0.93;;;20.00;46.80;;;;;;4928460;28;45454;-58
2022/04/16 08:31:43;;;;;;;1.20;1.10;;;20.10;46.70;;;;;;4926907;28;45275;-58
2022/04/16 08:34:09;;;;;;;2.38;1.27;;;20.10;46.60;;;;;;4927557;28;46399;-59
2022/04/16 08:36:36;;;;;;;1.08;0.93;;;20.10;46.60;;;;;;4928815;28;44679;-57
2022/04/16 08:39:02;;;;;;;0.90;0.85;;;20.10;46.60;;;;;;4925800;28;45184;-58
2022/04/16 08:41:28;;;;;;;1.38;1.27;;;20.10;46.70;;;;;;4935349;28;45588;-59
2022/04/16 08:43:54;;;;;;;1.35;1.05;;;20.10;46.60;;;;;;4909219;28;45186;-58
2022/04/16 08:46:19;;;;;;;1.25;1.15;;;20.10;46.60;;;;;;4916405;28;45529;-58
2022/04/16 08:48:45;;;;;;;1.08;0.98;;;20.10;46.60;;;;;;4919192;28;45639;-58
2022/04/16 08:51:11;;;;;;;1.33;1.00;;;20.20;46.60;;;;;;4912980;28;45610;-58
2022/04/16 08:53:37;;;;;;;1.33;1.23;;;20.20;46.60;;;;;;4927735;28;46233;-56
2022/04/16 08:56:03;;;;;;;1.15;1.02;;;20.20;46.60;;;;;;4930516;28;45487;-57
2022/04/16 08:58:30;;;;;;;1.42;1.30;;;20.20;46.60;;;;;;4926795;28;45032;-58
2022/04/16 09:00:56;;;;;;;1.35;1.15;;;20.20;46.60;;;;;;4932469;28;45180;-58
2022/04/16 09:03:30;;;;;;;0.90;0.90;;;20.30;46.60;;;;;;4899312;28;45284;-59
2022/04/16 09:05:56;;;;;;;1.20;1.10;;;20.30;46.50;;;;;;4913683;28;45613;-59
2022/04/16 09:08:30;;;;;;;1.20;1.10;;;20.30;46.50;;;;;;4926638;28;45098;-58
2022/04/16 09:11:11;;;;;;;1.02;0.93;;;20.30;46.40;;;;;;4934401;28;44959;-59
2022/04/16 09:13:50;;;;;;;1.40;1.30;;;20.30;46.40;;;;;;4907655;28;46810;-55
2022/04/16 09:16:17;;;;;;;1.35;1.25;;;20.40;46.50;;;;;;4935608;28;45201;-58
2022/04/16 09:18:50;;;;;;;1.30;1.20;;;20.40;46.40;;;;;;4931430;28;44866;-59
2022/04/16 09:21:19;;;;;;;1.00;0.90;;;20.40;46.40;;;;;;4936693;28;45716;-58
2022/04/16 09:23:52;;;;;;;1.48;1.17;;;20.40;46.40;;;;;;4923049;28;45897;-57
2022/04/16 09:26:30;;;;;;;1.38;1.25;;;20.40;46.30;;;;;;4910463;28;45212;-58
2022/04/16 09:28:56;;;;;;;1.05;0.93;;;20.50;46.40;;;;;;4905814;28;45258;-57
2022/04/16 09:31:28;;;;;;;1.13;1.02;;;20.50;46.30;;;;;;4928129;28;45511;-56
2022/04/16 09:33:55;;;;;;;0.93;0.93;;;20.50;46.30;;;;;;4918675;28;45289;-58
2022/04/16 09:36:25;;;;;;;1.30;1.20;;;20.50;46.30;;;;;;4908467;28;45433;-57
2022/04/16 09:39:05;;;;;;;2.05;1.10;;;20.60;46.40;;;;;;4937895;28;45492;-57
2022/04/16 09:41:33;;;;;;;1.30;1.20;;;20.60;46.30;;;;;;4909450;28;45318;-52
2022/04/16 09:43:59;;;;;;;1.50;1.17;;;20.60;46.20;;;;;;4927051;28;45305;-57
2022/04/16 09:46:29;;;;;;;0.88;0.88;;;20.60;46.20;;;;;;4915290;28;45335;-60
2022/04/16 09:49:13;;;;;;;1.05;0.95;;;20.60;46.20;;;;;;4917518;28;45617;-57
2022/04/16 09:51:41;;;;;;;1.20;1.10;;;20.60;46.10;;;;;;4941246;28;45054;-58
2022/04/16 09:54:07;;;;;;;1.10;1.00;;;20.60;46.10;;;;;;4927413;28;45488;-56
2022/04/16 09:56:36;;;;;;;1.10;1.00;;;20.60;46.00;;;;;;4920984;28;45398;-55
2022/04/16 09:59:04;;;;;;;1.23;1.13;;;20.70;46.00;;;;;;4932358;28;45150;-55
2022/04/16 10:01:30;;;;;;;0.90;0.90;;;20.60;46.00;;;;;;4911213;28;45667;-54
2022/04/16 10:03:56;;;;;;;1.30;1.20;;;20.70;46.00;;;;;;4930212;28;46404;-54
2022/04/16 10:06:21;;;;;;;1.00;1.00;;;20.70;46.00;;;;;;4927519;28;45187;-55
2022/04/16 10:08:50;;;;;;;2.92;1.10;;;20.70;46.00;;;;;;4910890;28;45240;-55
2022/04/16 10:11:20;;;;;;;2.38;1.10;;;20.70;46.60;;;;;;4923532;28;46643;-53
2022/04/16 10:13:56;;;;;;;1.20;1.10;;;20.70;46.30;;;;;;4891128;28;45772;-56
2022/04/16 10:16:30;;;;;;;1.40;1.30;;;20.70;45.90;;;;;;4910825;28;45662;-55
2022/04/16 10:18:57;;;;;;;1.35;1.25;;;20.70;45.90;;;;;;4913002;28;45273;-58
2022/04/16 10:21:23;;;;;;;1.42;1.13;;;20.70;45.90;;;;;;4912425;28;45295;-58
2022/04/16 10:23:48;;;;;;;1.45;1.30;;;20.70;45.90;;;;;;4927836;28;45972;-59
2022/04/16 10:26:15;;;;;;;1.35;1.25;;;20.70;45.90;;;;;;4908170;28;45505;-58
2022/04/16 10:28:42;;;;;;;0.90;0.90;;;20.70;45.90;;;;;;4916815;28;45453;-55
2022/04/16 10:31:27;;;;;;;1.35;1.25;;;20.80;46.00;;;;;;4914403;28;45199;-58
2022/04/16 10:34:05;;;;;;;1.10;1.00;;;20.70;45.90;;;;;;4929836;28;45334;-56
2022/04/16 10:36:37;;;;;;;1.63;1.00;;;20.80;46.00;;;;;;4925286;28;45472;-59
2022/04/16 10:39:17;;;;;;;1.50;1.40;;;20.80;46.00;;;;;;4925705;28;45029;-57
2022/04/16 10:41:56;;;;;;;1.25;1.15;;;20.80;45.90;;;;;;4923981;28;45528;-59
2022/04/16 10:44:22;;;;;;;1.52;1.15;;;20.80;45.80;;;;;;4921678;28;46214;-57
2022/04/16 10:46:48;;;;;;;1.10;1.00;;;20.90;45.80;;;;;;4910722;28;45131;-58
2022/04/16 10:49:18;;;;;;;1.25;1.15;;;20.80;45.80;;;;;;4926955;28;45712;-59
2022/04/16 10:51:44;;;;;;;1.10;1.00;;;20.80;45.80;;;;;;4933627;28;44990;-57
2022/04/16 10:54:14;;;;;;;1.48;1.30;;;20.80;45.80;;;;;;4932450;28;46118;-57
2022/04/16 10:56:44;;;;;;;1.42;1.20;;;20.80;45.80;;;;;;4908443;28;45555;-58
2022/04/16 10:59:10;;;;;;;1.50;1.40;;;20.90;45.80;;;;;;4907963;28;45343;-59
2022/04/16 11:01:36;;;;;;;1.35;1.25;;;20.90;45.80;;;;;;4933157;28;45502;-57
2022/04/16 11:04:15;;;;;;;1.50;1.40;;;20.90;45.80;;;;;;4922147;28;45246;-59
2022/04/16 11:06:45;;;;;;;1.13;1.02;;;20.90;45.80;;;;;;4918852;28;45525;-59
2022/04/16 11:09:16;;;;;;;1.10;1.00;;;20.90;45.80;;;;;;4932016;28;45186;-60
2022/04/16 11:11:43;;;;;;;1.08;0.98;;;20.90;45.80;;;;;;4927893;28;44861;-59
2022/04/16 11:14:09;;;;;;;1.10;1.00;;;20.90;45.80;;;;;;4933671;28;47053;-59
2022/04/16 11:16:46;;;;;;;1.60;1.00;;;20.90;45.80;;;;;;4932338;28;45156;-55
2022/04/16 11:19:15;;;;;;;0.73;0.73;;;20.90;45.80;;;;;;4929386;28;44744;-56
2022/04/16 11:21:41;;;;;;;0.98;0.88;;;21.00;45.90;;;;;;4922345;28;45844;-57
2022/04/16 11:24:07;;;;;;;1.15;1.05;;;20.90;45.80;;;;;;4929580;28;46897;-58
2022/04/16 11:35:06;;;;;;;1.42;1.10;;;20.90;45.90;;;;;;4893450;28;45886;-56
2022/04/16 11:37:32;;;;;;;1.25;1.15;;;21.00;45.80;;;;;;4916098;28;45516;-58
2022/04/16 11:40:03;;;;;;;1.25;1.15;;;21.00;45.90;;;;;;4925707;28;44781;-54
2022/04/16 11:42:29;;;;;;;2.00;0.98;;;21.00;45.90;;;;;;4936521;28;45388;-55
2022/04/16 11:44:55;;;;;;;1.20;1.10;;;21.00;45.90;;;;;;4931369;28;46127;-55
2022/04/16 11:47:22;;;;;;;1.17;1.08;;;21.00;45.90;;;;;;4909461;28;45240;-57
2022/04/16 11:50:01;;;;;;;1.20;1.10;;;21.00;45.90;;;;;;4908655;28;45090;-58
2022/04/16 11:52:31;;;;;;;1.70;0.90;;;21.00;45.90;;;;;;4908895;28;45224;-56
2022/04/16 11:55:00;;;;;;;1.00;0.98;;;21.00;46.00;;;;;;4927811;28;46266;-56
2022/04/16 11:57:26;;;;;;;1.15;1.05;;;21.00;46.00;;;;;;4926812;28;46348;-57
2022/04/16 11:59:56;;;;;;;0.90;0.90;;;21.00;46.00;;;;;;4939093;28;45249;-55
2022/04/16 12:02:27;;;;;;;1.30;1.20;;;21.00;46.10;;;;;;4911247;28;45700;-55
2022/04/16 12:04:53;;;;;;;0.82;0.82;;;21.00;46.10;;;;;;4910287;28;46820;-60
2022/04/16 12:07:20;;;;;;;1.23;1.13;;;21.00;46.10;;;;;;4907824;28;45030;-58
2022/04/16 12:09:48;;;;;;;1.20;1.10;;;21.00;46.10;;;;;;4907895;28;45394;-59
2022/04/16 12:12:18;;;;;;;1.05;0.95;;;21.00;46.20;;;;;;4908521;28;45244;-57
2022/04/16 12:14:48;;;;;;;0.80;0.80;;;21.00;46.20;;;;;;4917408;28;45981;-57
2022/04/16 12:17:27;;;;;;;0.82;0.82;;;21.00;46.30;;;;;;4908536;28;45265;-58
2022/04/16 12:20:05;;;;;;;1.08;0.98;;;21.00;46.20;;;;;;4911457;28;44770;-57
2022/04/16 12:22:31;;;;;;;1.42;1.00;;;21.00;46.20;;;;;;4893793;28;45363;-58
2022/04/16 12:25:09;;;;;;;0.82;0.82;;;21.00;46.20;;;;;;4913274;28;45892;-57
2022/04/16 12:27:35;;;;;;;1.45;1.20;;;21.00;46.10;;;;;;4908474;28;45138;-57
2022/04/16 12:30:02;;;;;;;1.08;1.00;;;21.00;46.10;;;;;;4915891;28;45386;-56
2022/04/16 12:32:28;;;;;;;1.05;0.98;;;21.00;46.00;;;;;;4892152;28;45630;-56
2022/04/16 12:34:54;;;;;;;1.33;1.10;;;21.00;46.10;;;;;;4908943;28;46845;-56
2022/04/16 12:37:20;;;;;;;1.15;1.05;;;21.10;46.10;;;;;;4908474;28;45036;-57
2022/04/16 12:39:46;;;;;;;0.85;0.77;;;21.10;46.10;;;;;;4910437;28;45673;-56
2022/04/16 12:42:12;;;;;;;1.30;1.15;;;21.10;46.00;;;;;;4908181;28;45415;-57
2022/04/16 12:44:37;;;;;;;1.10;1.00;;;21.10;46.00;;;;;;4907187;28;46359;-57
2022/04/16 12:47:03;;;;;;;1.00;1.00;;;21.10;46.10;;;;;;4911720;28;45167;-57
2022/04/16 12:49:29;;;;;;;1.10;1.00;;;21.10;46.10;;;;;;4906521;28;45561;-55
2022/04/16 12:51:54;;;;;;;1.33;1.23;;;21.10;46.10;;;;;;4907496;28;45669;-57
2022/04/16 12:54:20;;;;;;;1.33;1.23;;;21.10;46.00;;;;;;4905588;28;45955;-59
2022/04/16 12:56:47;;;;;;;1.27;1.15;;;21.10;46.00;;;;;;4913871;28;44706;-56
2022/04/16 12:59:15;;;;;;;1.55;1.10;;;21.10;45.90;;;;;;4910717;28;45160;-58
2022/04/16 13:01:40;;;;;;;0.90;0.90;;;21.10;45.90;;;;;;4921217;28;45494;-56
2022/04/16 13:04:06;;;;;;;1.25;1.00;;;21.10;45.90;;;;;;4899355;28;46049;-59
2022/04/16 13:06:32;;;;;;;0.85;0.85;;;21.20;46.00;;;;;;4925686;28;45264;-55
2022/04/16 13:09:02;;;;;;;1.33;1.23;;;21.10;45.90;;;;;;4932507;28;45591;-57
2022/04/16 13:11:28;;;;;;;1.20;1.10;;;21.10;46.00;;;;;;4925456;28;45512;-55
2022/04/16 13:13:53;;;;;;;1.05;0.95;;;21.10;45.90;;;;;;4929023;28;45517;-58
2022/04/16 13:16:19;;;;;;;1.10;1.00;;;21.10;45.90;;;;;;4927770;28;45156;-56
2022/04/16 13:18:45;;;;;;;1.30;1.20;;;21.10;46.00;;;;;;4928966;28;45651;-57
2022/04/16 13:21:10;;;;;;;1.10;1.00;;;21.10;46.00;;;;;;4918230;28;44701;-55
2022/04/16 13:23:36;;;;;;;1.15;1.05;;;21.10;46.00;;;;;;4909427;28;45289;-55
2022/04/16 13:26:02;;;;;;;0.80;0.80;;;21.10;46.00;;;;;;4930828;28;45280;-56
2022/04/16 13:28:27;;;;;;;1.10;1.00;;;21.10;46.00;;;;;;4909703;28;45443;-58
2022/04/16 13:30:54;;;;;;;1.20;1.00;;;21.10;46.00;;;;;;4933897;28;45067;-58
2022/04/16 13:33:21;;;;;;;1.35;1.10;;;21.10;46.00;;;;;;4929737;28;46300;-56
2022/04/16 13:35:46;;;;;;;1.38;1.13;;;21.10;46.00;;;;;;4925925;28;45213;-57
2022/04/16 13:38:12;;;;;;;1.30;1.20;;;21.10;46.00;;;;;;4930215;28;45386;-57
2022/04/16 13:43:22;;;;;;;1.48;1.10;;;21.10;46.00;;;;;;4930833;28;47004;-55
2022/04/16 13:45:47;;;;;;;0.90;0.90;;;21.10;46.00;;;;;;4928890;28;45279;-55
2022/04/16 13:48:13;;;;;;;1.40;1.20;;;21.20;46.10;;;;;;4931403;28;44898;-54
2022/04/16 13:50:39;;;;;;;1.10;1.00;;;21.20;46.10;;;;;;4929289;28;45482;-57
2022/04/16 13:53:05;;;;;;;1.33;1.10;;;21.10;46.00;;;;;;4911751;28;45935;-55
2022/04/16 13:55:30;;;;;;;1.25;1.15;;;21.10;46.00;;;;;;4927696;28;45524;-54
2022/04/16 13:57:56;;;;;;;1.17;1.05;;;21.20;46.10;;;;;;4926960;28;45249;-56
2022/04/16 14:00:21;;;;;;;1.58;1.23;;;21.20;46.10;;;;;;4933281;28;45629;-54
2022/04/16 14:02:47;;;;;;;0.90;0.90;;;21.20;46.00;;;;;;4909574;28;46068;-56
2022/04/16 14:07:57;;;;;;;1.17;1.00;;;21.20;46.00;;;;;;4928997;28;45263;-57
2022/04/16 14:10:22;;;;;;;1.35;1.10;;;21.20;46.00;;;;;;4929821;28;45435;-58
2022/04/16 14:12:48;;;;;;;1.27;1.17;;;21.20;46.00;;;;;;4938527;28;46196;-55
2022/04/16 14:15:13;;;;;;;0.85;0.85;;;21.20;46.00;;;;;;4925909;28;45314;-56
2022/04/16 14:17:39;;;;;;;0.95;0.95;;;21.20;46.10;;;;;;4927817;28;45334;-56
2022/04/16 14:20:05;;;;;;;1.13;0.90;;;21.20;46.00;;;;;;4932464;28;45519;-53
2022/04/16 14:22:31;;;;;;;1.23;1.13;;;21.20;46.00;;;;;;4923568;28;45598;-57
2022/04/16 14:24:57;;;;;;;1.42;1.27;;;21.20;46.00;;;;;;4922560;28;45856;-56
2022/04/16 14:27:23;;;;;;;1.30;1.20;;;21.20;46.00;;;;;;4937238;28;44907;-56
2022/04/16 14:29:50;;;;;;;1.35;1.10;;;21.20;46.10;;;;;;4929930;28;44868;-56
2022/04/16 14:32:16;;;;;;;1.30;0.98;;;21.20;46.00;;;;;;4928542;28;46763;-56
2022/04/16 14:34:42;;;;;;;1.00;0.95;;;21.20;46.00;;;;;;4928997;28;44779;-59
2022/04/16 14:37:07;;;;;;;1.08;0.98;;;21.20;46.00;;;;;;4924236;28;44760;-56
2022/04/16 14:39:34;;;;;;;1.10;1.05;;;21.20;46.00;;;;;;4926890;28;45592;-55
2022/04/16 14:42:00;;;;;;;1.10;1.00;;;21.20;46.00;;;;;;4925076;28;45181;-58
2022/04/16 14:44:25;;;;;;;1.98;1.00;;;21.30;46.00;;;;;;4917872;28;45477;-55
2022/04/16 14:46:51;;;;;;;1.35;1.15;;;21.20;46.00;;;;;;4896513;28;45502;-58
2022/04/16 14:49:17;;;;;;;1.00;0.88;;;21.20;46.00;;;;;;4935601;28;45145;-57
2022/04/16 14:51:43;;;;;;;1.20;1.10;;;21.20;45.70;;;;;;4929053;28;46050;-57
2022/04/16 14:54:09;;;;;;;0.82;0.80;;;21.20;45.70;;;;;;4930886;28;44646;-59
2022/04/16 14:56:35;;;;;;;1.10;1.00;;;21.20;45.80;;;;;;4929313;28;45242;-58
2022/04/16 14:59:03;;;;;;;3.13;1.10;;;21.20;45.60;;;;;;4916665;28;45324;-56
2022/04/16 15:01:32;;;;;;;1.90;0.90;;;21.20;45.50;;;;;;4935229;28;47165;-58
2022/04/16 15:03:58;;;;;;;1.00;1.00;;;21.20;45.10;;;;;;4918567;28;45036;-56
2022/04/16 15:06:23;;;;;;;1.20;1.00;;;21.20;45.30;;;;;;4928002;28;45108;-56
2022/04/16 15:08:50;;;;;;;2.40;0.98;;;21.20;45.40;;;;;;4926781;28;45615;-55
2022/04/16 15:11:15;;;;;;;1.20;1.10;;;21.20;45.40;;;;;;4910971;28;46028;-55
2022/04/16 15:13:41;;;;;;;1.33;1.10;;;21.20;44.70;;;;;;4934229;28;45348;-57
2022/04/16 15:16:07;;;;;;;3.92;1.27;;;21.20;44.50;;;;;;4921520;28;45254;-55
2022/04/16 15:18:34;;;;;;;1.30;1.10;;;21.20;44.40;;;;;;4926349;28;45404;-56
2022/04/16 15:20:59;;;;;;;2.13;1.10;;;21.20;44.50;;;;;;4924855;28;45211;-58
2022/04/16 15:23:25;;;;;;;3.67;0.90;;;21.20;44.40;;;;;;4926708;28;46119;-57
2022/04/16 15:25:51;;;;;;;1.77;0.93;;;21.20;44.30;;;;;;4929424;28;44738;-55
2022/04/16 15:28:17;;;;;;;1.00;0.88;;;21.10;44.20;;;;;;4930228;28;45377;-56
2022/04/16 15:30:45;;;;;;;1.30;1.00;;;21.10;44.10;;;;;;4928154;28;46135;-55
2022/04/16 15:33:11;;;;;;;2.67;0.93;;;21.10;44.30;;;;;;4911586;28;45612;-58
2022/04/16 15:35:36;;;;;;;1.45;1.00;;;21.10;44.20;;;;;;4932317;28;45379;-55
2022/04/16 15:38:02;;;;;;;1.23;0.88;;;21.20;43.90;;;;;;4934333;28;45286;-54
2022/04/16 15:40:28;;;;;;;2.13;1.13;;;21.20;43.80;;;;;;4926017;28;45549;-58
2022/04/16 15:42:55;;;;;;;5.53;1.20;;;21.20;44.00;;;;;;4905640;28;45721;-57
2022/04/16 15:45:20;;;;;;;2.10;1.10;;;21.20;43.70;;;;;;4922036;28;45254;-58
2022/04/16 15:47:46;;;;;;;2.20;1.20;;;21.20;43.50;;;;;;4925671;28;45601;-58
2022/04/16 15:50:13;;;;;;;1.75;0.95;;;21.30;43.50;;;;;;4925347;28;47001;-56
2022/04/16 15:52:39;;;;;;;2.60;0.90;;;21.30;43.50;;;;;;4923672;28;45284;-56
2022/04/16 15:55:05;;;;;;;3.97;0.90;;;21.30;43.40;;;;;;4926321;28;45363;-59
2022/04/16 15:57:30;;;;;;;1.83;1.00;;;21.30;43.60;;;;;;4916792;28;44777;-55
2022/04/16 15:59:56;;;;;;;4.78;1.00;;;21.30;43.70;;;;;;4926066;28;47289;-56
2022/04/16 16:02:22;;;;;;;1.75;1.08;;;21.30;43.50;;;;;;4909540;28;44685;-55
2022/04/16 16:04:57;;;;;;;1.42;1.13;;;21.30;43.50;;;;;;4897289;28;45351;-57
2022/04/16 16:07:26;;;;;;;1.02;0.82;;;21.30;43.20;;;;;;4925732;28;45693;-55
2022/04/16 16:09:55;;;;;;;1.83;0.90;;;21.20;43.10;;;;;;4920967;28;45489;-55
2022/04/16 16:12:24;;;;;;;2.22;0.90;;;21.20;43.30;;;;;;4929446;28;45204;-56
2022/04/16 16:14:49;;;;;;;2.35;0.70;;;21.20;43.40;;;;;;4928542;28;44742;-56
2022/04/16 16:17:15;;;;;;;1.20;0.73;;;21.20;43.50;;;;;;4925008;28;45433;-55